sensor_id;sensor_type;location;lat;lon;timestamp;temperature;humidity
12688;DHT22;6408;59.388;17.798;2023-06-14T00:01:59;15.10;99.90
12688;DHT22;6408;59.388;17.798;2023-06-14T00:04:26;15.10;99.90
12688;DHT22;6408;59.388;17.798;2023-06-14T00:06:55;15.10;99.90
12688;DHT22;6408;59.388;17.798;2023-06-14T00:09:22;15.00;99.90
12688;DHT22;6408;59.388;17.798;2023-06-14T00:11:51;15.00;99.90
12688;DHT22;6408;59.388;17.798;2023-06-14T00:14:18;15.00;99.90
12688;DHT22;6408;59.388;17.798;2023-06-14T00:16:45;14.90;99.90
12688;DHT22;6408;59.388;17.798;2023-06-14T00:19:13;14.90;99.90
12688;DHT22;6408;59.388;17.798;2023-06-14T00:21:41;14.90;99.90
12688;DHT22;6408;59.388;17.798;2023-06-14T00:24:08;14.90;99.90
12688;DHT22;6408;59.388;17.798;2023-06-14T00:26:36;14.90;99.90
12688;DHT22;6408;59.388;17.798;2023-06-14T00:29:05;14.90;99.90
12688;DHT22;6408;59.388;17.798;2023-06-14T00:31:33;14.90;99.90
12688;DHT22;6408;59.388;17.798;2023-06-14T00:34:00;14.90;99.90
12688;DHT22;6408;59.388;17.798;2023-06-14T00:36:28;15.00;99.90
12688;DHT22;6408;59.388;17.798;2023-06-14T00:38:55;15.00;99.90
12688;DHT22;6408;59.388;17.798;2023-06-14T00:41:22;15.10;99.90
12688;DHT22;6408;59.388;17.798;2023-06-14T00:43:49;15.10;99.90
12688;DHT22;6408;59.388;17.798;2023-06-14T00:46:18;15.10;99.90
12688;DHT22;6408;59.388;17.798;2023-06-14T00:48:48;15.10;99.90
12688;DHT22;6408;59.388;17.798;2023-06-14T00:51:16;15.00;99.90
12688;DHT22;6408;59.388;17.798;2023-06-14T00:53:44;15.10;99.90
12688;DHT22;6408;59.388;17.798;2023-06-14T00:56:12;15.00;99.90
12688;DHT22;6408;59.388;17.798;2023-06-14T00:58:41;15.00;99.90
12688;DHT22;6408;59.388;17.798;2023-06-14T01:01:08;15.00;99.90
12688;DHT22;6408;59.388;17.798;2023-06-14T01:03:38;15.10;99.90
12688;DHT22;6408;59.388;17.798;2023-06-14T01:06:11;15.20;99.90
12688;DHT22;6408;59.388;17.798;2023-06-14T01:08:46;15.20;99.90
12688;DHT22;6408;59.388;17.798;2023-06-14T01:11:18;15.20;99.90
12688;DHT22;6408;59.388;17.798;2023-06-14T01:13:50;15.20;99.90
12688;DHT22;6408;59.388;17.798;2023-06-14T01:16:20;15.10;99.90
12688;DHT22;6408;59.388;17.798;2023-06-14T01:18:49;15.00;99.90
12688;DHT22;6408;59.388;17.798;2023-06-14T01:21:22;14.90;99.90
12688;DHT22;6408;59.388;17.798;2023-06-14T01:23:51;14.80;99.90
12688;DHT22;6408;59.388;17.798;2023-06-14T01:26:19;14.70;99.90
12688;DHT22;6408;59.388;17.798;2023-06-14T01:28:47;14.70;99.90
12688;DHT22;6408;59.388;17.798;2023-06-14T01:31:19;14.60;99.90
12688;DHT22;6408;59.388;17.798;2023-06-14T01:33:48;14.50;99.90
12688;DHT22;6408;59.388;17.798;2023-06-14T01:36:18;14.50;99.90
12688;DHT22;6408;59.388;17.798;2023-06-14T01:38:47;14.50;99.90
12688;DHT22;6408;59.388;17.798;2023-06-14T01:41:18;14.40;99.90
12688;DHT22;6408;59.388;17.798;2023-06-14T01:43:47;14.40;99.90
12688;DHT22;6408;59.388;17.798;2023-06-14T01:46:16;14.30;99.90
12688;DHT22;6408;59.388;17.798;2023-06-14T01:48:43;14.30;99.90
12688;DHT22;6408;59.388;17.798;2023-06-14T01:51:10;14.30;99.90
12688;DHT22;6408;59.388;17.798;2023-06-14T01:53:37;14.20;99.90
12688;DHT22;6408;59.388;17.798;2023-06-14T01:56:06;14.20;99.90
12688;DHT22;6408;59.388;17.798;2023-06-14T01:58:35;14.00;99.90
12688;DHT22;6408;59.388;17.798;2023-06-14T02:01:02;14.00;99.90
12688;DHT22;6408;59.388;17.798;2023-06-14T02:03:29;14.00;99.90
12688;DHT22;6408;59.388;17.798;2023-06-14T02:05:57;14.00;99.90
12688;DHT22;6408;59.388;17.798;2023-06-14T02:08:24;14.00;99.90
12688;DHT22;6408;59.388;17.798;2023-06-14T02:10:51;13.90;99.90
12688;DHT22;6408;59.388;17.798;2023-06-14T02:13:19;14.00;99.90
12688;DHT22;6408;59.388;17.798;2023-06-14T02:15:48;14.00;99.90
12688;DHT22;6408;59.388;17.798;2023-06-14T02:18:18;14.00;99.90
12688;DHT22;6408;59.388;17.798;2023-06-14T02:20:45;14.10;99.90
12688;DHT22;6408;59.388;17.798;2023-06-14T02:23:12;14.10;99.90
12688;DHT22;6408;59.388;17.798;2023-06-14T02:25:39;14.10;99.90
12688;DHT22;6408;59.388;17.798;2023-06-14T02:28:07;14.10;99.90
12688;DHT22;6408;59.388;17.798;2023-06-14T02:30:34;14.10;99.90
12688;DHT22;6408;59.388;17.798;2023-06-14T02:33:02;14.10;99.90
12688;DHT22;6408;59.388;17.798;2023-06-14T02:35:30;14.20;99.90
12688;DHT22;6408;59.388;17.798;2023-06-14T02:37:57;14.20;99.90
12688;DHT22;6408;59.388;17.798;2023-06-14T02:40:24;14.10;99.90
12688;DHT22;6408;59.388;17.798;2023-06-14T02:42:51;14.20;99.90
12688;DHT22;6408;59.388;17.798;2023-06-14T02:45:19;14.30;99.90
12688;DHT22;6408;59.388;17.798;2023-06-14T02:47:46;14.30;99.90
12688;DHT22;6408;59.388;17.798;2023-06-14T02:50:15;14.40;99.90
12688;DHT22;6408;59.388;17.798;2023-06-14T02:52:43;14.50;99.90
12688;DHT22;6408;59.388;17.798;2023-06-14T02:55:11;14.50;99.90
12688;DHT22;6408;59.388;17.798;2023-06-14T02:57:38;14.50;99.90
12688;DHT22;6408;59.388;17.798;2023-06-14T03:00:06;14.50;99.90
12688;DHT22;6408;59.388;17.798;2023-06-14T03:02:38;14.50;99.90
12688;DHT22;6408;59.388;17.798;2023-06-14T03:05:08;14.50;99.90
12688;DHT22;6408;59.388;17.798;2023-06-14T03:07:37;14.60;99.90
12688;DHT22;6408;59.388;17.798;2023-06-14T03:10:07;14.70;99.90
12688;DHT22;6408;59.388;17.798;2023-06-14T03:12:35;14.60;99.90
12688;DHT22;6408;59.388;17.798;2023-06-14T03:15:03;14.60;99.90
12688;DHT22;6408;59.388;17.798;2023-06-14T03:17:30;14.80;99.90
12688;DHT22;6408;59.388;17.798;2023-06-14T03:19:59;14.90;99.90
12688;DHT22;6408;59.388;17.798;2023-06-14T03:22:27;15.00;99.90
12688;DHT22;6408;59.388;17.798;2023-06-14T03:24:55;15.00;99.90
12688;DHT22;6408;59.388;17.798;2023-06-14T03:27:23;15.00;99.90
12688;DHT22;6408;59.388;17.798;2023-06-14T03:29:50;15.00;99.90
12688;DHT22;6408;59.388;17.798;2023-06-14T03:32:17;15.20;99.90
12688;DHT22;6408;59.388;17.798;2023-06-14T03:34:44;15.20;99.90
12688;DHT22;6408;59.388;17.798;2023-06-14T03:37:12;15.20;99.90
12688;DHT22;6408;59.388;17.798;2023-06-14T03:39:39;15.20;99.90
12688;DHT22;6408;59.388;17.798;2023-06-14T03:42:13;15.30;99.90
12688;DHT22;6408;59.388;17.798;2023-06-14T03:44:40;15.50;99.90
12688;DHT22;6408;59.388;17.798;2023-06-14T03:47:07;15.40;99.90
12688;DHT22;6408;59.388;17.798;2023-06-14T03:49:35;15.40;99.90
12688;DHT22;6408;59.388;17.798;2023-06-14T03:52:03;15.50;99.90
12688;DHT22;6408;59.388;17.798;2023-06-14T03:54:31;15.80;99.90
12688;DHT22;6408;59.388;17.798;2023-06-14T03:56:59;16.00;99.90
12688;DHT22;6408;59.388;17.798;2023-06-14T03:59:27;16.20;99.90
12688;DHT22;6408;59.388;17.798;2023-06-14T04:01:55;16.40;99.90
12688;DHT22;6408;59.388;17.798;2023-06-14T04:04:22;16.60;99.90
12688;DHT22;6408;59.388;17.798;2023-06-14T04:06:54;16.90;99.90
12688;DHT22;6408;59.388;17.798;2023-06-14T04:09:22;17.10;99.90
12688;DHT22;6408;59.388;17.798;2023-06-14T04:11:50;17.30;99.90
12688;DHT22;6408;59.388;17.798;2023-06-14T04:14:18;17.60;99.90
12688;DHT22;6408;59.388;17.798;2023-06-14T04:16:47;17.70;99.90
12688;DHT22;6408;59.388;17.798;2023-06-14T04:19:14;17.90;99.90
12688;DHT22;6408;59.388;17.798;2023-06-14T04:21:41;18.00;99.90
12688;DHT22;6408;59.388;17.798;2023-06-14T04:24:08;18.10;99.90
12688;DHT22;6408;59.388;17.798;2023-06-14T04:26:38;18.20;99.90
12688;DHT22;6408;59.388;17.798;2023-06-14T04:29:06;18.30;99.90
12688;DHT22;6408;59.388;17.798;2023-06-14T04:31:33;18.40;99.90
12688;DHT22;6408;59.388;17.798;2023-06-14T04:34:04;18.30;99.90
12688;DHT22;6408;59.388;17.798;2023-06-14T04:36:32;18.20;99.90
12688;DHT22;6408;59.388;17.798;2023-06-14T04:39:00;18.10;99.90
12688;DHT22;6408;59.388;17.798;2023-06-14T04:41:28;18.10;99.90
12688;DHT22;6408;59.388;17.798;2023-06-14T04:43:56;18.10;99.90
12688;DHT22;6408;59.388;17.798;2023-06-14T04:46:27;18.10;99.90
12688;DHT22;6408;59.388;17.798;2023-06-14T04:48:55;18.50;99.90
12688;DHT22;6408;59.388;17.798;2023-06-14T04:51:24;18.90;99.90
12688;DHT22;6408;59.388;17.798;2023-06-14T04:53:55;19.40;99.90
12688;DHT22;6408;59.388;17.798;2023-06-14T04:56:24;19.80;99.90
12688;DHT22;6408;59.388;17.798;2023-06-14T04:58:52;20.10;99.90
12688;DHT22;6408;59.388;17.798;2023-06-14T05:01:22;20.20;99.90
12688;DHT22;6408;59.388;17.798;2023-06-14T05:03:50;20.40;99.90
12688;DHT22;6408;59.388;17.798;2023-06-14T05:06:17;20.60;99.90
12688;DHT22;6408;59.388;17.798;2023-06-14T05:08:46;20.80;99.90
12688;DHT22;6408;59.388;17.798;2023-06-14T05:11:13;20.70;99.90
12688;DHT22;6408;59.388;17.798;2023-06-14T05:13:42;20.60;99.90
12688;DHT22;6408;59.388;17.798;2023-06-14T05:16:10;20.40;99.90
12688;DHT22;6408;59.388;17.798;2023-06-14T05:18:38;20.30;99.90
12688;DHT22;6408;59.388;17.798;2023-06-14T05:21:05;20.60;99.90
12688;DHT22;6408;59.388;17.798;2023-06-14T05:23:32;20.60;99.90
12688;DHT22;6408;59.388;17.798;2023-06-14T05:26:02;20.50;99.90
12688;DHT22;6408;59.388;17.798;2023-06-14T05:28:30;20.30;99.90
12688;DHT22;6408;59.388;17.798;2023-06-14T05:30:57;20.20;99.90
12688;DHT22;6408;59.388;17.798;2023-06-14T05:33:25;20.10;99.90
12688;DHT22;6408;59.388;17.798;2023-06-14T05:35:52;20.00;99.90
12688;DHT22;6408;59.388;17.798;2023-06-14T05:38:19;19.90;99.90
12688;DHT22;6408;59.388;17.798;2023-06-14T05:40:47;19.90;99.90
12688;DHT22;6408;59.388;17.798;2023-06-14T05:43:15;20.10;99.90
12688;DHT22;6408;59.388;17.798;2023-06-14T05:45:42;20.50;99.90
12688;DHT22;6408;59.388;17.798;2023-06-14T05:48:09;20.80;99.90
12688;DHT22;6408;59.388;17.798;2023-06-14T05:50:36;21.10;99.90
12688;DHT22;6408;59.388;17.798;2023-06-14T05:53:03;21.10;99.90
12688;DHT22;6408;59.388;17.798;2023-06-14T05:55:30;21.20;99.90
12688;DHT22;6408;59.388;17.798;2023-06-14T05:57:57;21.50;99.90
12688;DHT22;6408;59.388;17.798;2023-06-14T06:00:27;21.50;99.90
12688;DHT22;6408;59.388;17.798;2023-06-14T06:02:54;21.40;99.90
12688;DHT22;6408;59.388;17.798;2023-06-14T06:05:23;21.20;99.90
12688;DHT22;6408;59.388;17.798;2023-06-14T06:07:51;21.10;99.90
12688;DHT22;6408;59.388;17.798;2023-06-14T06:10:18;21.20;99.90
12688;DHT22;6408;59.388;17.798;2023-06-14T06:12:45;21.20;99.90
12688;DHT22;6408;59.388;17.798;2023-06-14T06:15:13;21.70;99.90
12688;DHT22;6408;59.388;17.798;2023-06-14T06:17:42;22.00;99.90
12688;DHT22;6408;59.388;17.798;2023-06-14T06:20:10;22.40;99.90
12688;DHT22;6408;59.388;17.798;2023-06-14T06:22:37;22.60;99.90
12688;DHT22;6408;59.388;17.798;2023-06-14T06:25:06;22.90;99.90
12688;DHT22;6408;59.388;17.798;2023-06-14T06:27:34;23.10;99.90
12688;DHT22;6408;59.388;17.798;2023-06-14T06:30:03;23.20;99.90
12688;DHT22;6408;59.388;17.798;2023-06-14T06:32:31;23.40;99.90
12688;DHT22;6408;59.388;17.798;2023-06-14T06:34:59;23.70;99.90
12688;DHT22;6408;59.388;17.798;2023-06-14T06:37:26;23.80;99.90
12688;DHT22;6408;59.388;17.798;2023-06-14T06:39:53;23.70;99.90
12688;DHT22;6408;59.388;17.798;2023-06-14T06:42:20;23.70;99.90
12688;DHT22;6408;59.388;17.798;2023-06-14T06:44:47;23.80;99.90
12688;DHT22;6408;59.388;17.798;2023-06-14T06:47:14;23.70;99.90
12688;DHT22;6408;59.388;17.798;2023-06-14T06:49:42;23.70;99.90
12688;DHT22;6408;59.388;17.798;2023-06-14T06:52:11;24.10;99.90
12688;DHT22;6408;59.388;17.798;2023-06-14T06:54:38;24.60;99.90
12688;DHT22;6408;59.388;17.798;2023-06-14T06:57:05;25.00;99.90
12688;DHT22;6408;59.388;17.798;2023-06-14T06:59:34;25.10;99.90
12688;DHT22;6408;59.388;17.798;2023-06-14T07:02:03;25.30;99.90
12688;DHT22;6408;59.388;17.798;2023-06-14T07:04:30;25.40;99.90
12688;DHT22;6408;59.388;17.798;2023-06-14T07:06:57;25.50;99.90
12688;DHT22;6408;59.388;17.798;2023-06-14T07:09:26;25.40;99.90
12688;DHT22;6408;59.388;17.798;2023-06-14T07:11:53;25.30;99.90
12688;DHT22;6408;59.388;17.798;2023-06-14T07:14:20;25.20;99.90
12688;DHT22;6408;59.388;17.798;2023-06-14T07:16:48;25.00;99.90
12688;DHT22;6408;59.388;17.798;2023-06-14T07:19:16;25.00;99.90
12688;DHT22;6408;59.388;17.798;2023-06-14T07:21:43;25.10;99.90
12688;DHT22;6408;59.388;17.798;2023-06-14T07:24:10;25.30;99.90
12688;DHT22;6408;59.388;17.798;2023-06-14T07:26:38;25.50;99.90
12688;DHT22;6408;59.388;17.798;2023-06-14T07:29:05;25.50;99.90
12688;DHT22;6408;59.388;17.798;2023-06-14T07:31:32;25.50;99.90
12688;DHT22;6408;59.388;17.798;2023-06-14T07:33:59;25.30;99.90
12688;DHT22;6408;59.388;17.798;2023-06-14T07:36:26;25.70;99.90
12688;DHT22;6408;59.388;17.798;2023-06-14T07:38:54;26.00;99.90
12688;DHT22;6408;59.388;17.798;2023-06-14T07:41:21;26.10;99.90
12688;DHT22;6408;59.388;17.798;2023-06-14T07:43:50;26.20;99.90
12688;DHT22;6408;59.388;17.798;2023-06-14T07:46:17;26.30;99.90
12688;DHT22;6408;59.388;17.798;2023-06-14T07:48:45;26.30;99.90
12688;DHT22;6408;59.388;17.798;2023-06-14T07:51:12;26.20;99.50
12688;DHT22;6408;59.388;17.798;2023-06-14T07:53:40;26.40;99.90
12688;DHT22;6408;59.388;17.798;2023-06-14T07:56:07;26.30;98.50
12688;DHT22;6408;59.388;17.798;2023-06-14T07:58:35;26.60;99.30
12688;DHT22;6408;59.388;17.798;2023-06-14T08:01:03;27.00;97.50
12688;DHT22;6408;59.388;17.798;2023-06-14T08:03:33;27.20;97.30
12688;DHT22;6408;59.388;17.798;2023-06-14T08:06:01;27.30;97.20
12688;DHT22;6408;59.388;17.798;2023-06-14T08:08:28;27.30;94.60
12688;DHT22;6408;59.388;17.798;2023-06-14T08:10:56;27.40;96.00
12688;DHT22;6408;59.388;17.798;2023-06-14T08:13:23;27.30;97.30
12688;DHT22;6408;59.388;17.798;2023-06-14T08:15:50;27.40;95.90
12688;DHT22;6408;59.388;17.798;2023-06-14T08:18:19;27.50;94.80
12688;DHT22;6408;59.388;17.798;2023-06-14T08:20:46;27.70;93.30
12688;DHT22;6408;59.388;17.798;2023-06-14T08:23:13;27.90;93.30
12688;DHT22;6408;59.388;17.798;2023-06-14T08:25:41;28.00;92.20
12688;DHT22;6408;59.388;17.798;2023-06-14T08:28:08;28.10;91.30
12688;DHT22;6408;59.388;17.798;2023-06-14T08:30:36;28.00;90.80
12688;DHT22;6408;59.388;17.798;2023-06-14T08:33:03;28.10;90.70
12688;DHT22;6408;59.388;17.798;2023-06-14T08:35:31;28.20;90.10
12688;DHT22;6408;59.388;17.798;2023-06-14T08:37:58;28.40;90.00
12688;DHT22;6408;59.388;17.798;2023-06-14T08:40:27;28.60;90.00
12688;DHT22;6408;59.388;17.798;2023-06-14T08:42:56;28.70;91.50
12688;DHT22;6408;59.388;17.798;2023-06-14T08:45:25;28.70;90.10
12688;DHT22;6408;59.388;17.798;2023-06-14T08:47:52;28.70;89.50
12688;DHT22;6408;59.388;17.798;2023-06-14T08:50:24;28.70;89.70
12688;DHT22;6408;59.388;17.798;2023-06-14T08:52:54;28.70;89.70
12688;DHT22;6408;59.388;17.798;2023-06-14T08:55:23;28.70;85.10
12688;DHT22;6408;59.388;17.798;2023-06-14T08:57:54;28.90;84.50
12688;DHT22;6408;59.388;17.798;2023-06-14T09:00:22;29.20;85.90
12688;DHT22;6408;59.388;17.798;2023-06-14T09:02:50;29.30;83.30
12688;DHT22;6408;59.388;17.798;2023-06-14T09:05:22;29.40;82.70
12688;DHT22;6408;59.388;17.798;2023-06-14T09:07:49;29.40;82.70
12688;DHT22;6408;59.388;17.798;2023-06-14T09:10:18;29.60;86.00
12688;DHT22;6408;59.388;17.798;2023-06-14T09:12:47;29.70;86.00
12688;DHT22;6408;59.388;17.798;2023-06-14T09:15:15;29.90;85.70
12688;DHT22;6408;59.388;17.798;2023-06-14T09:17:43;29.90;82.50
12688;DHT22;6408;59.388;17.798;2023-06-14T09:20:10;29.90;83.70
12688;DHT22;6408;59.388;17.798;2023-06-14T09:22:39;30.10;83.70
12688;DHT22;6408;59.388;17.798;2023-06-14T09:25:08;30.30;83.80
12688;DHT22;6408;59.388;17.798;2023-06-14T09:27:37;30.10;84.20
12688;DHT22;6408;59.388;17.798;2023-06-14T09:30:06;29.90;84.10
12688;DHT22;6408;59.388;17.798;2023-06-14T09:32:37;30.10;85.70
12688;DHT22;6408;59.388;17.798;2023-06-14T09:35:05;30.30;85.40
12688;DHT22;6408;59.388;17.798;2023-06-14T09:37:33;30.50;84.60
12688;DHT22;6408;59.388;17.798;2023-06-14T09:40:03;30.80;85.40
12688;DHT22;6408;59.388;17.798;2023-06-14T09:42:31;30.90;84.00
12688;DHT22;6408;59.388;17.798;2023-06-14T09:45:03;30.90;84.30
12688;DHT22;6408;59.388;17.798;2023-06-14T09:47:31;30.40;85.20
12688;DHT22;6408;59.388;17.798;2023-06-14T09:49:58;30.00;84.90
12688;DHT22;6408;59.388;17.798;2023-06-14T09:52:27;29.50;86.50
12688;DHT22;6408;59.388;17.798;2023-06-14T09:54:55;29.20;86.80
12688;DHT22;6408;59.388;17.798;2023-06-14T09:57:23;28.90;88.50
12688;DHT22;6408;59.388;17.798;2023-06-14T09:59:56;28.60;89.20
12688;DHT22;6408;59.388;17.798;2023-06-14T10:02:28;28.40;90.10
12688;DHT22;6408;59.388;17.798;2023-06-14T10:05:02;28.30;90.00
12688;DHT22;6408;59.388;17.798;2023-06-14T10:07:34;28.20;90.40
12688;DHT22;6408;59.388;17.798;2023-06-14T10:10:02;28.10;90.80
12688;DHT22;6408;59.388;17.798;2023-06-14T10:12:30;28.10;91.40
12688;DHT22;6408;59.388;17.798;2023-06-14T10:14:58;28.00;91.70
12688;DHT22;6408;59.388;17.798;2023-06-14T10:17:34;28.00;91.70
12688;DHT22;6408;59.388;17.798;2023-06-14T10:20:14;28.00;92.30
12688;DHT22;6408;59.388;17.798;2023-06-14T10:22:47;27.70;92.00
12688;DHT22;6408;59.388;17.798;2023-06-14T10:25:26;27.70;93.10
12688;DHT22;6408;59.388;17.798;2023-06-14T10:28:02;27.70;92.50
12688;DHT22;6408;59.388;17.798;2023-06-14T10:30:31;27.70;92.80
12688;DHT22;6408;59.388;17.798;2023-06-14T10:33:06;27.70;92.90
12688;DHT22;6408;59.388;17.798;2023-06-14T10:35:34;27.60;92.90
12688;DHT22;6408;59.388;17.798;2023-06-14T10:38:07;27.50;92.20
12688;DHT22;6408;59.388;17.798;2023-06-14T10:40:36;27.50;91.80
12688;DHT22;6408;59.388;17.798;2023-06-14T10:43:21;27.50;92.60
12688;DHT22;6408;59.388;17.798;2023-06-14T10:46:16;27.50;92.60
12688;DHT22;6408;59.388;17.798;2023-06-14T10:48:49;27.50;93.20
12688;DHT22;6408;59.388;17.798;2023-06-14T10:51:24;27.60;93.10
12688;DHT22;6408;59.388;17.798;2023-06-14T10:53:52;27.70;93.00
12688;DHT22;6408;59.388;17.798;2023-06-14T10:56:29;27.80;91.90
12688;DHT22;6408;59.388;17.798;2023-06-14T10:58:56;27.90;92.40
12688;DHT22;6408;59.388;17.798;2023-06-14T11:01:32;27.90;91.60
12688;DHT22;6408;59.388;17.798;2023-06-14T11:04:12;27.90;91.90
12688;DHT22;6408;59.388;17.798;2023-06-14T11:06:47;27.90;92.00
12688;DHT22;6408;59.388;17.798;2023-06-14T11:09:43;28.00;92.70
12688;DHT22;6408;59.388;17.798;2023-06-14T11:12:13;27.90;93.00
12688;DHT22;6408;59.388;17.798;2023-06-14T11:14:41;27.90;92.70
12688;DHT22;6408;59.388;17.798;2023-06-14T11:17:08;27.90;93.00
12688;DHT22;6408;59.388;17.798;2023-06-14T11:19:37;27.90;93.40
12688;DHT22;6408;59.388;17.798;2023-06-14T11:22:05;27.90;93.10
12688;DHT22;6408;59.388;17.798;2023-06-14T11:24:33;28.10;92.60
12688;DHT22;6408;59.388;17.798;2023-06-14T11:27:01;28.20;92.50
12688;DHT22;6408;59.388;17.798;2023-06-14T11:29:29;28.40;92.40
12688;DHT22;6408;59.388;17.798;2023-06-14T11:31:59;28.50;91.90
12688;DHT22;6408;59.388;17.798;2023-06-14T11:34:26;28.40;91.80
12688;DHT22;6408;59.388;17.798;2023-06-14T11:36:54;28.60;92.00
12688;DHT22;6408;59.388;17.798;2023-06-14T11:39:24;28.40;92.00
12688;DHT22;6408;59.388;17.798;2023-06-14T11:41:53;28.40;92.00
12688;DHT22;6408;59.388;17.798;2023-06-14T11:44:21;28.30;92.00
12688;DHT22;6408;59.388;17.798;2023-06-14T11:46:48;28.20;91.90
12688;DHT22;6408;59.388;17.798;2023-06-14T11:49:16;28.00;91.90
12688;DHT22;6408;59.388;17.798;2023-06-14T11:51:43;27.80;92.00
12688;DHT22;6408;59.388;17.798;2023-06-14T11:54:12;27.80;92.00
12688;DHT22;6408;59.388;17.798;2023-06-14T11:56:39;27.70;91.50
12688;DHT22;6408;59.388;17.798;2023-06-14T11:59:07;27.80;91.60
12688;DHT22;6408;59.388;17.798;2023-06-14T12:01:36;27.70;91.60
12688;DHT22;6408;59.388;17.798;2023-06-14T12:04:04;27.70;91.30
12688;DHT22;6408;59.388;17.798;2023-06-14T12:06:32;27.90;91.30
12688;DHT22;6408;59.388;17.798;2023-06-14T12:09:03;28.00;91.10
12688;DHT22;6408;59.388;17.798;2023-06-14T12:11:35;28.20;91.10
12688;DHT22;6408;59.388;17.798;2023-06-14T12:14:04;28.10;91.50
12688;DHT22;6408;59.388;17.798;2023-06-14T12:16:32;28.20;91.00
12688;DHT22;6408;59.388;17.798;2023-06-14T12:19:07;28.00;91.60
12688;DHT22;6408;59.388;17.798;2023-06-14T12:21:37;27.80;91.40
12688;DHT22;6408;59.388;17.798;2023-06-14T12:24:06;27.50;91.60
12688;DHT22;6408;59.388;17.798;2023-06-14T12:26:38;27.20;92.40
12688;DHT22;6408;59.388;17.798;2023-06-14T12:29:07;27.10;91.90
12688;DHT22;6408;59.388;17.798;2023-06-14T12:31:34;27.30;92.00
12688;DHT22;6408;59.388;17.798;2023-06-14T12:34:02;27.20;91.90
12688;DHT22;6408;59.388;17.798;2023-06-14T12:36:30;27.10;92.10
12688;DHT22;6408;59.388;17.798;2023-06-14T12:38:57;27.00;92.10
12688;DHT22;6408;59.388;17.798;2023-06-14T12:41:25;27.40;91.70
12688;DHT22;6408;59.388;17.798;2023-06-14T12:43:54;27.80;91.80
12688;DHT22;6408;59.388;17.798;2023-06-14T12:46:23;27.80;91.50
12688;DHT22;6408;59.388;17.798;2023-06-14T12:48:51;27.60;91.60
12688;DHT22;6408;59.388;17.798;2023-06-14T12:51:18;27.20;91.60
12688;DHT22;6408;59.388;17.798;2023-06-14T12:53:45;27.00;91.30
12688;DHT22;6408;59.388;17.798;2023-06-14T12:56:12;27.00;91.60
12688;DHT22;6408;59.388;17.798;2023-06-14T12:58:39;26.90;92.10
12688;DHT22;6408;59.388;17.798;2023-06-14T13:01:08;27.00;92.20
12688;DHT22;6408;59.388;17.798;2023-06-14T13:03:36;27.10;91.70
12688;DHT22;6408;59.388;17.798;2023-06-14T13:06:03;27.00;91.80
12688;DHT22;6408;59.388;17.798;2023-06-14T13:08:31;27.00;91.70
12688;DHT22;6408;59.388;17.798;2023-06-14T13:10:58;27.00;92.00
12688;DHT22;6408;59.388;17.798;2023-06-14T13:13:26;27.10;91.50
12688;DHT22;6408;59.388;17.798;2023-06-14T13:15:53;27.20;91.80
12688;DHT22;6408;59.388;17.798;2023-06-14T13:18:22;27.30;91.60
12688;DHT22;6408;59.388;17.798;2023-06-14T13:20:49;27.30;91.70
12688;DHT22;6408;59.388;17.798;2023-06-14T13:23:16;27.20;91.90
12688;DHT22;6408;59.388;17.798;2023-06-14T13:25:44;27.20;91.60
12688;DHT22;6408;59.388;17.798;2023-06-14T13:28:11;27.30;91.80
12688;DHT22;6408;59.388;17.798;2023-06-14T13:30:38;27.50;91.60
12688;DHT22;6408;59.388;17.798;2023-06-14T13:33:06;27.70;91.10
12688;DHT22;6408;59.388;17.798;2023-06-14T13:35:34;27.50;91.00
12688;DHT22;6408;59.388;17.798;2023-06-14T13:38:02;27.50;91.20
12688;DHT22;6408;59.388;17.798;2023-06-14T13:40:29;27.70;91.00
12688;DHT22;6408;59.388;17.798;2023-06-14T13:42:56;27.60;91.20
12688;DHT22;6408;59.388;17.798;2023-06-14T13:45:24;27.40;91.40
12688;DHT22;6408;59.388;17.798;2023-06-14T13:47:51;27.30;91.50
12688;DHT22;6408;59.388;17.798;2023-06-14T13:50:19;27.00;91.40
12688;DHT22;6408;59.388;17.798;2023-06-14T13:52:48;26.90;91.70
12688;DHT22;6408;59.388;17.798;2023-06-14T13:55:16;26.90;91.60
12688;DHT22;6408;59.388;17.798;2023-06-14T13:57:43;27.10;91.20
12688;DHT22;6408;59.388;17.798;2023-06-14T14:00:11;27.40;91.20
12688;DHT22;6408;59.388;17.798;2023-06-14T14:02:39;27.50;91.10
12688;DHT22;6408;59.388;17.798;2023-06-14T14:05:08;27.60;90.90
12688;DHT22;6408;59.388;17.798;2023-06-14T14:07:35;27.60;90.90
12688;DHT22;6408;59.388;17.798;2023-06-14T14:10:07;27.60;91.00
12688;DHT22;6408;59.388;17.798;2023-06-14T14:12:34;27.40;91.30
12688;DHT22;6408;59.388;17.798;2023-06-14T14:15:05;27.20;91.10
12688;DHT22;6408;59.388;17.798;2023-06-14T14:17:33;27.20;91.30
12688;DHT22;6408;59.388;17.798;2023-06-14T14:20:01;27.10;91.00
12688;DHT22;6408;59.388;17.798;2023-06-14T14:22:28;27.30;91.00
12688;DHT22;6408;59.388;17.798;2023-06-14T14:24:56;27.60;91.00
12688;DHT22;6408;59.388;17.798;2023-06-14T14:27:25;27.70;90.60
12688;DHT22;6408;59.388;17.798;2023-06-14T14:29:53;27.90;90.60
12688;DHT22;6408;59.388;17.798;2023-06-14T14:32:20;28.10;90.30
12688;DHT22;6408;59.388;17.798;2023-06-14T14:34:48;28.00;90.80
12688;DHT22;6408;59.388;17.798;2023-06-14T14:37:16;27.80;90.90
12688;DHT22;6408;59.388;17.798;2023-06-14T14:39:44;27.70;90.60
12688;DHT22;6408;59.388;17.798;2023-06-14T14:42:13;27.70;90.90
12688;DHT22;6408;59.388;17.798;2023-06-14T14:44:42;27.70;91.00
12688;DHT22;6408;59.388;17.798;2023-06-14T14:47:10;27.80;91.10
12688;DHT22;6408;59.388;17.798;2023-06-14T14:49:37;27.80;91.10
12688;DHT22;6408;59.388;17.798;2023-06-14T14:52:06;27.80;91.10
12688;DHT22;6408;59.388;17.798;2023-06-14T14:54:33;27.80;91.00
12688;DHT22;6408;59.388;17.798;2023-06-14T14:57:01;27.80;91.00
12688;DHT22;6408;59.388;17.798;2023-06-14T14:59:29;27.50;90.80
12688;DHT22;6408;59.388;17.798;2023-06-14T15:01:58;27.30;91.00
12688;DHT22;6408;59.388;17.798;2023-06-14T15:04:25;27.40;91.10
12688;DHT22;6408;59.388;17.798;2023-06-14T15:06:53;27.30;90.60
12688;DHT22;6408;59.388;17.798;2023-06-14T15:09:20;27.50;91.00
12688;DHT22;6408;59.388;17.798;2023-06-14T15:11:48;27.50;91.20
12688;DHT22;6408;59.388;17.798;2023-06-14T15:14:15;27.50;90.70
12688;DHT22;6408;59.388;17.798;2023-06-14T15:16:43;27.40;91.00
12688;DHT22;6408;59.388;17.798;2023-06-14T15:19:12;27.30;91.00
12688;DHT22;6408;59.388;17.798;2023-06-14T15:21:40;27.30;90.70
12688;DHT22;6408;59.388;17.798;2023-06-14T15:24:08;27.10;91.00
12688;DHT22;6408;59.388;17.798;2023-06-14T15:26:35;27.00;90.90
12688;DHT22;6408;59.388;17.798;2023-06-14T15:29:03;27.00;91.20
12688;DHT22;6408;59.388;17.798;2023-06-14T15:31:30;27.00;91.10
12688;DHT22;6408;59.388;17.798;2023-06-14T15:33:58;26.90;91.20
12688;DHT22;6408;59.388;17.798;2023-06-14T15:36:27;26.90;91.40
12688;DHT22;6408;59.388;17.798;2023-06-14T15:38:54;27.00;91.40